Time;durP1;ratioP1;P1;durP2;ratioP2;P2;SDS_P1;SDS_P2;PMS_P1;PMS_P2;Temp;Humidity;BMP_temperature;BMP_pressure;BME280_temperature;BME280_humidity;BME280_pressure;Samples;Min_cycle;Max_cycle;Signal;HPM_P1;HPM_P2
2021/08/05 00:01:31;;;;;;;;;;;;;;;18.11;73.25;101147.53;5055332;28;19921;-62
2021/08/05 00:03:58;;;;;;;;;;;;;;;18.08;73.51;101148.66;5052811;28;19961;-62
2021/08/05 00:06:25;;;;;;;;;;;;;;;18.08;73.82;101149.50;5053251;28;19921;-61
2021/08/05 00:08:52;;;;;;;;;;;;;;;18.15;73.44;101139.13;5055196;28;20394;-62
2021/08/05 00:11:18;;;;;;;;;;;;;;;18.09;73.55;101134.34;5055116;28;20288;-62
2021/08/05 00:13:45;;;;;;;;;;;;;;;18.11;73.72;101142.22;5051575;28;19921;-62
2021/08/05 00:16:12;;;;;;;;;;;;;;;18.13;73.98;101135.75;5052634;28;19925;-61
2021/08/05 00:18:38;;;;;;;;;;;;;;;18.11;74.41;101134.25;5054982;28;19925;-62
2021/08/05 00:21:05;;;;;;;;;;;;;;;18.11;74.33;101131.59;5050606;28;19967;-62
2021/08/05 00:23:32;;;;;;;;;;;;;;;18.12;74.71;101128.78;5053317;28;20011;-45
2021/08/05 00:25:58;;;;;;;;;;;;;;;18.02;74.86;101131.41;5054054;28;19963;-45
2021/08/05 00:28:26;;;;;;;;;;;;;;;18.04;74.64;101118.84;5049161;28;20620;-45
2021/08/05 00:30:52;;;;;;;;;;;;;;;18.05;74.30;101135.63;5051903;28;19921;-46
2021/08/05 00:33:19;;;;;;;;;;;;;;;18.02;74.54;101120.78;5037055;28;19921;-46
2021/08/05 00:35:46;;;;;;;;;;;;;;;18.00;74.31;101120.09;5054618;28;19921;-47
2021/08/05 00:38:12;;;;;;;;;;;;;;;17.94;74.66;101112.66;5051899;28;19925;-44
2021/08/05 00:40:39;;;;;;;;;;;;;;;17.91;75.09;101115.59;5051925;28;19925;-47
2021/08/05 00:43:06;;;;;;;;;;;;;;;17.88;75.11;101108.72;5052687;28;20339;-45
2021/08/05 00:45:33;;;;;;;;;;;;;;;17.94;75.50;101104.69;5053757;28;19921;-62
2021/08/05 00:48:00;;;;;;;;;;;;;;;17.87;75.74;101117.72;5051581;28;20362;-62
2021/08/05 00:50:26;;;;;;;;;;;;;;;17.80;76.37;101113.91;5052436;28;19920;-62
2021/08/05 00:52:53;;;;;;;;;;;;;;;17.77;76.43;101118.69;5054683;28;19952;-62
2021/08/05 00:55:20;;;;;;;;;;;;;;;17.71;76.41;101114.75;5054417;28;19920;-46
2021/08/05 00:57:46;;;;;;;;;;;;;;;17.68;76.99;101115.03;5054479;28;19921;-45
2021/08/05 01:00:13;;;;;;;;;;;;;;;17.62;77.33;101105.81;5051720;28;19951;-48
2021/08/05 01:02:41;;;;;;;;;;;;;;;17.58;77.31;101107.06;5052340;28;20573;-50
2021/08/05 01:05:08;;;;;;;;;;;;;;;17.52;77.72;101103.16;5054414;28;20383;-51
2021/08/05 01:07:38;;;;;;;;;;;;;;;17.54;77.54;101108.31;5053896;28;19921;-46
2021/08/05 01:10:17;;;;;;;;;;;;;;;17.51;77.78;101113.91;5050800;28;19921;-47
2021/08/05 01:13:04;;;;;;;;;;;;;;;17.45;78.19;101103.81;5051330;28;19931;-44
2021/08/05 01:15:31;;;;;;;;;;;;;;;17.46;78.02;101114.31;5052928;28;19983;-62
2021/08/05 01:18:27;;;;;;;;;;;;;;;17.45;77.91;101117.13;5052276;28;19931;-62
2021/08/05 01:20:54;;;;;;;;;;;;;;;17.45;78.02;101111.81;5050201;28;19924;-62
2021/08/05 01:23:28;;;;;;;;;;;;;;;17.46;77.96;101109.00;5052633;28;19924;-48
2021/08/05 01:25:54;;;;;;;;;;;;;;;17.45;77.90;101114.47;5053946;28;19921;-44
2021/08/05 01:28:21;;;;;;;;;;;;;;;17.50;77.65;101105.09;5054018;28;19942;-62
2021/08/05 01:30:48;;;;;;;;;;;;;;;17.33;78.79;101103.09;5053915;28;20437;-61
2021/08/05 01:33:19;;;;;;;;;;;;;;;17.35;78.45;101098.50;5053527;28;19921;-46
2021/08/05 01:35:48;;;;;;;;;;;;;;;17.43;78.30;101106.63;5049888;28;19920;-46
2021/08/05 01:38:14;;;;;;;;;;;;;;;17.45;78.21;101095.84;5051460;28;19956;-46
2021/08/05 01:40:41;;;;;;;;;;;;;;;17.43;78.37;101097.81;5050542;28;20406;-48
2021/08/05 01:43:08;;;;;;;;;;;;;;;17.37;78.44;101092.06;5048046;28;20646;-45
2021/08/05 01:45:35;;;;;;;;;;;;;;;17.29;78.86;101091.94;5050500;28;19921;-47
2021/08/05 01:48:01;;;;;;;;;;;;;;;17.30;79.06;101090.09;5052181;28;20389;-49
2021/08/05 01:50:28;;;;;;;;;;;;;;;17.31;79.10;101089.97;5048964;28;19921;-45
2021/08/05 01:52:55;;;;;;;;;;;;;;;17.27;79.02;101090.38;5051537;28;19970;-48
2021/08/05 01:55:21;;;;;;;;;;;;;;;17.30;79.21;101090.97;5051712;28;19921;-46
2021/08/05 01:57:48;;;;;;;;;;;;;;;17.27;79.15;101080.56;5052940;28;19924;-62
2021/08/05 02:00:15;;;;;;;;;;;;;;;17.23;79.13;101084.50;5053071;28;19920;-47
2021/08/05 02:02:41;;;;;;;;;;;;;;;17.22;79.32;101080.19;5052876;28;19921;-47
2021/08/05 02:05:15;;;;;;;;;;;;;;;17.17;79.20;101088.53;5050496;28;20288;-46
2021/08/05 02:07:47;;;;;;;;;;;;;;;17.22;78.98;101082.84;5050143;28;20331;-48
2021/08/05 02:10:18;;;;;;;;;;;;;;;17.14;79.31;101080.00;5051802;28;19921;-49
2021/08/05 02:12:47;;;;;;;;;;;;;;;17.10;79.46;101074.13;5048318;28;20003;-49
2021/08/05 02:15:14;;;;;;;;;;;;;;;17.09;79.40;101066.31;5049359;28;19940;-47
2021/08/05 02:17:42;;;;;;;;;;;;;;;17.05;79.81;101065.72;5053161;28;19920;-60
2021/08/05 02:20:10;;;;;;;;;;;;;;;17.02;79.94;101066.84;5051805;28;20334;-62
2021/08/05 02:22:38;;;;;;;;;;;;;;;17.05;80.01;101061.25;5049946;28;20383;-62
2021/08/05 02:25:05;;;;;;;;;;;;;;;17.05;80.05;101068.38;5048810;28;19921;-62
2021/08/05 02:27:32;;;;;;;;;;;;;;;17.08;80.15;101057.47;5034405;28;19959;-45
2021/08/05 02:29:58;;;;;;;;;;;;;;;17.09;80.19;101053.84;5048369;28;19955;-47
2021/08/05 02:32:25;;;;;;;;;;;;;;;17.05;80.18;101057.75;5050745;28;19921;-61
2021/08/05 02:34:52;;;;;;;;;;;;;;;16.99;80.63;101058.31;5051475;28;19999;-62
2021/08/05 02:37:18;;;;;;;;;;;;;;;17.03;80.32;101060.56;5052275;28;19921;-46
2021/08/05 02:39:45;;;;;;;;;;;;;;;17.02;80.17;101061.53;5052177;28;20379;-49
2021/08/05 02:42:12;;;;;;;;;;;;;;;16.93;80.90;101077.44;5050838;28;20283;-47
2021/08/05 02:44:38;;;;;;;;;;;;;;;16.92;80.89;101066.00;5050953;28;19924;-46
2021/08/05 02:47:05;;;;;;;;;;;;;;;16.94;80.49;101066.69;5052450;28;19921;-48
2021/08/05 02:49:32;;;;;;;;;;;;;;;16.86;80.81;101077.13;5051282;28;19959;-61
2021/08/05 02:51:59;;;;;;;;;;;;;;;16.90;80.91;101074.06;5034989;28;19971;-61
2021/08/05 02:54:25;;;;;;;;;;;;;;;16.86;81.13;101069.16;5052423;28;19921;-62
2021/08/05 02:56:52;;;;;;;;;;;;;;;16.85;81.33;101063.00;5051292;28;20772;-61
2021/08/05 02:59:19;;;;;;;;;;;;;;;16.85;80.76;101056.84;5051407;28;19921;-61
2021/08/05 03:01:45;;;;;;;;;;;;;;;16.85;80.93;101063.00;5051448;28;19927;-61
2021/08/05 03:04:12;;;;;;;;;;;;;;;16.80;80.88;101057.25;5049897;28;20007;-61
2021/08/05 03:06:39;;;;;;;;;;;;;;;16.84;80.92;101057.84;5051112;28;19920;-61
2021/08/05 03:09:06;;;;;;;;;;;;;;;16.83;80.76;101049.00;5052519;28;19940;-44
2021/08/05 03:11:33;;;;;;;;;;;;;;;16.81;80.99;101047.47;5053630;28;20478;-46
2021/08/05 03:13:59;;;;;;;;;;;;;;;16.75;80.90;101048.84;5056127;28;19967;-44
2021/08/05 03:16:26;;;;;;;;;;;;;;;16.79;81.16;101047.59;5055854;28;20358;-45
2021/08/05 03:18:53;;;;;;;;;;;;;;;16.73;81.81;101051.63;5056093;28;20435;-47
2021/08/05 03:21:19;;;;;;;;;;;;;;;16.71;81.90;101042.97;5055701;28;19972;-59
2021/08/05 03:23:46;;;;;;;;;;;;;;;16.72;81.57;101043.81;5051668;28;19920;-63
2021/08/05 03:26:13;;;;;;;;;;;;;;;16.70;81.83;101045.75;5053115;28;19925;-61
2021/08/05 03:28:39;;;;;;;;;;;;;;;16.68;81.33;101043.22;5055915;28;20380;-60
2021/08/05 03:31:06;;;;;;;;;;;;;;;16.65;81.15;101040.84;5053114;28;19940;-61
2021/08/05 03:33:33;;;;;;;;;;;;;;;16.59;81.01;101037.91;5054493;28;20338;-62
2021/08/05 03:35:59;;;;;;;;;;;;;;;16.58;80.72;101039.72;5056095;28;20346;-49
2021/08/05 03:38:26;;;;;;;;;;;;;;;16.61;80.66;101043.94;5052890;28;19966;-48
2021/08/05 03:40:54;;;;;;;;;;;;;;;16.60;80.42;101039.59;5052346;28;19929;-61
2021/08/05 03:43:21;;;;;;;;;;;;;;;16.59;80.42;101030.75;5051632;28;19971;-61
2021/08/05 03:45:47;;;;;;;;;;;;;;;16.60;80.82;101034.28;5051055;28;20345;-61
2021/08/05 03:48:14;;;;;;;;;;;;;;;16.56;81.08;101034.53;5054086;28;19952;-61
2021/08/05 03:50:41;;;;;;;;;;;;;;;16.55;81.57;101026.69;5055569;28;19921;-62
2021/08/05 03:53:08;;;;;;;;;;;;;;;16.52;82.09;101026.97;5037505;28;19927;-45
2021/08/05 03:55:34;;;;;;;;;;;;;;;16.56;81.78;101025.72;5052320;28;19925;-46
2021/08/05 03:58:01;;;;;;;;;;;;;;;16.50;82.28;101026.28;5052953;28;19921;-48
2021/08/05 04:00:27;;;;;;;;;;;;;;;16.45;82.33;101021.34;5055042;28;19975;-46
2021/08/05 04:02:54;;;;;;;;;;;;;;;16.48;82.08;101015.78;5054961;28;19929;-49
2021/08/05 04:05:21;;;;;;;;;;;;;;;16.45;82.44;101009.91;5054794;28;20498;-47
2021/08/05 04:07:48;;;;;;;;;;;;;;;16.43;81.97;101011.84;5051357;28;19920;-50
2021/08/05 04:10:15;;;;;;;;;;;;;;;16.41;81.86;101009.31;5052735;28;19924;-50
2021/08/05 04:12:42;;;;;;;;;;;;;;;16.39;82.21;101009.47;5055117;28;19921;-48
2021/08/05 04:15:08;;;;;;;;;;;;;;;16.41;82.10;101013.81;5055290;28;19928;-50
2021/08/05 04:17:36;;;;;;;;;;;;;;;16.37;82.22;101011.44;5054106;28;20276;-47
2021/08/05 04:20:04;;;;;;;;;;;;;;;16.42;82.36;101007.53;5052816;28;19927;-61
2021/08/05 04:22:30;;;;;;;;;;;;;;;16.37;82.59;101019.38;5051053;28;19929;-61
2021/08/05 04:24:57;;;;;;;;;;;;;;;16.42;82.54;101010.19;5052591;28;19920;-48
2021/08/05 04:27:24;;;;;;;;;;;;;;;16.45;82.50;101013.38;5054949;28;20167;-45
2021/08/05 04:29:50;;;;;;;;;;;;;;;16.45;82.28;101016.03;5055001;28;19927;-47
2021/08/05 04:32:17;;;;;;;;;;;;;;;16.38;82.89;101026.34;5055177;28;19952;-47
2021/08/05 04:34:44;;;;;;;;;;;;;;;16.36;83.11;101017.69;5054944;28;20014;-60
2021/08/05 04:37:10;;;;;;;;;;;;;;;16.41;83.03;101019.94;5054752;28;19928;-45
2021/08/05 04:39:39;;;;;;;;;;;;;;;16.38;82.94;101026.34;5054704;28;19928;-48
2021/08/05 04:42:05;;;;;;;;;;;;;;;16.39;83.02;101021.91;5054795;28;19921;-61
2021/08/05 04:44:32;;;;;;;;;;;;;;;16.39;83.34;101027.22;5052118;28;19920;-61
2021/08/05 04:46:59;;;;;;;;;;;;;;;16.44;83.18;101024.16;5051310;28;19924;-61
2021/08/05 04:49:25;;;;;;;;;;;;;;;16.39;83.38;101025.38;5053827;28;19920;-62
2021/08/05 04:51:53;;;;;;;;;;;;;;;16.37;83.42;101029.16;5054668;28;19990;-61
2021/08/05 04:54:21;;;;;;;;;;;;;;;16.41;83.25;101025.25;5053330;28;20354;-61
2021/08/05 04:56:47;;;;;;;;;;;;;;;16.43;83.09;101027.75;5052579;28;19921;-61
2021/08/05 04:59:14;;;;;;;;;;;;;;;16.43;83.14;101030.41;5049691;28;19920;-62
2021/08/05 05:01:41;;;;;;;;;;;;;;;16.41;82.81;101030.56;5053448;28;19920;-62
2021/08/05 05:04:07;;;;;;;;;;;;;;;16.42;83.15;101026.94;5054288;28;19974;-44
2021/08/05 05:06:34;;;;;;;;;;;;;;;16.39;82.98;101028.03;5051584;28;20375;-44
2021/08/05 05:09:01;;;;;;;;;;;;;;;16.42;83.05;101020.81;5051406;28;19928;-46
2021/08/05 05:11:30;;;;;;;;;;;;;;;16.43;82.78;101019.81;5036703;28;19950;-61
2021/08/05 05:13:57;;;;;;;;;;;;;;;16.47;82.92;101015.91;5053963;28;19920;-61
2021/08/05 05:16:23;;;;;;;;;;;;;;;16.48;82.52;101020.25;5054136;28;19920;-62
2021/08/05 05:18:50;;;;;;;;;;;;;;;16.47;82.71;101015.91;5053821;28;19921;-47
2021/08/05 05:21:17;;;;;;;;;;;;;;;16.50;83.07;101013.00;5053896;28;20322;-62
2021/08/05 05:23:43;;;;;;;;;;;;;;;16.53;82.71;101015.38;5053947;28;19966;-61
2021/08/05 05:26:10;;;;;;;;;;;;;;;16.53;82.85;101007.41;5053950;28;19925;-61
2021/08/05 05:28:37;;;;;;;;;;;;;;;16.58;83.00;101010.50;5052887;28;19947;-61
2021/08/05 05:31:04;;;;;;;;;;;;;;;16.60;82.77;101005.91;5052580;28;19920;-61
2021/08/05 05:33:31;;;;;;;;;;;;;;;16.64;82.82;101004.66;5049781;28;19920;-61
2021/08/05 05:35:57;;;;;;;;;;;;;;;16.63;82.92;101002.13;5051505;28;20379;-61
2021/08/05 05:38:24;;;;;;;;;;;;;;;16.63;82.65;101007.44;5050890;28;19974;-61
2021/08/05 05:40:51;;;;;;;;;;;;;;;16.62;82.65;101001.31;5050696;28;19920;-61
2021/08/05 05:43:17;;;;;;;;;;;;;;;16.70;82.20;101004.13;5035482;28;19971;-61
2021/08/05 05:45:44;;;;;;;;;;;;;;;16.72;82.30;101003.97;5053220;28;19971;-61
2021/08/05 05:48:11;;;;;;;;;;;;;;;16.73;82.10;101003.84;5050083;28;19951;-58
2021/08/05 05:50:38;;;;;;;;;;;;;;;16.78;82.24;101000.75;5051553;28;19921;-61
2021/08/05 05:53:05;;;;;;;;;;;;;;;16.81;82.16;100995.19;5052037;28;19967;-61
2021/08/05 05:55:31;;;;;;;;;;;;;;;16.84;81.62;100991.44;5052021;28;19921;-61
2021/08/05 05:57:59;;;;;;;;;;;;;;;16.90;81.63;100996.22;5048296;28;20370;-61
2021/08/05 06:00:26;;;;;;;;;;;;;;;16.93;81.37;100993.28;5052912;28;19929;-44
2021/08/05 06:02:52;;;;;;;;;;;;;;;16.97;81.58;100993.84;5053096;28;20018;-46
2021/08/05 06:05:19;;;;;;;;;;;;;;;17.02;81.85;100991.63;5051514;28;19936;-49
2021/08/05 06:07:50;;;;;;;;;;;;;;;17.02;81.35;100992.44;5052573;28;19928;-51
2021/08/05 06:10:17;;;;;;;;;;;;;;;17.05;81.13;100994.81;5052413;28;19958;-52
2021/08/05 06:12:44;;;;;;;;;;;;;;;17.11;80.97;100988.13;5052971;28;19921;-62
2021/08/05 06:15:11;;;;;;;;;;;;;;;17.18;79.94;100988.41;5052294;28;19927;-62
2021/08/05 06:17:40;;;;;;;;;;;;;;;17.17;80.53;101002.69;5049138;28;20023;-62
2021/08/05 06:20:09;;;;;;;;;;;;;;;17.20;80.27;101000.56;5051366;28;19921;-62
2021/08/05 06:22:37;;;;;;;;;;;;;;;17.23;80.05;101004.75;5051682;28;19939;-62
2021/08/05 06:25:04;;;;;;;;;;;;;;;17.23;79.78;101010.06;5052698;28;19921;-62
2021/08/05 06:27:31;;;;;;;;;;;;;;;17.29;78.98;101004.22;5052386;28;19921;-62
2021/08/05 06:29:58;;;;;;;;;;;;;;;17.30;79.34;101000.59;5052522;28;20287;-61
2021/08/05 06:32:25;;;;;;;;;;;;;;;17.33;78.44;101002.97;5052403;28;19943;-61
2021/08/05 06:34:52;;;;;;;;;;;;;;;17.36;78.62;101010.66;5052731;28;19921;-62
2021/08/05 06:37:18;;;;;;;;;;;;;;;17.42;78.22;101008.41;5052682;28;19921;-61
2021/08/05 06:39:45;;;;;;;;;;;;;;;17.43;78.40;101010.09;5052730;28;19928;-61
2021/08/05 06:42:12;;;;;;;;;;;;;;;17.40;78.41;101006.72;5052029;28;19921;-61
2021/08/05 06:44:38;;;;;;;;;;;;;;;17.45;78.44;101013.44;5052854;28;19920;-61
2021/08/05 06:47:05;;;;;;;;;;;;;;;17.51;78.36;101004.91;5051336;28;19925;-61
2021/08/05 06:49:32;;;;;;;;;;;;;;;17.38;78.28;101008.69;5048169;28;19974;-62
2021/08/05 06:51:58;;;;;;;;;;;;;;;17.47;78.08;101003.53;5050135;28;19921;-45
2021/08/05 06:54:25;;;;;;;;;;;;;;;17.55;78.22;101003.66;5052539;28;19920;-61
2021/08/05 06:56:52;;;;;;;;;;;;;;;17.55;77.88;101004.47;5050830;28;19920;-48
2021/08/05 06:59:19;;;;;;;;;;;;;;;17.66;77.76;101005.31;5046582;28;19970;-46
2021/08/05 07:01:46;;;;;;;;;;;;;;;17.64;77.68;101004.59;5050709;28;19921;-49
2021/08/05 07:04:13;;;;;;;;;;;;;;;17.69;76.95;101005.84;5052134;28;19921;-47
2021/08/05 07:06:40;;;;;;;;;;;;;;;17.71;77.25;101011.88;5034821;28;20286;-61
2021/08/05 07:09:06;;;;;;;;;;;;;;;17.82;77.42;101004.69;5049447;28;19924;-61
2021/08/05 07:11:33;;;;;;;;;;;;;;;17.84;77.58;101002.75;5048602;28;19920;-47
2021/08/05 07:14:00;;;;;;;;;;;;;;;17.89;78.00;101001.34;5052237;28;20015;-47
2021/08/05 07:16:27;;;;;;;;;;;;;;;18.04;77.19;101001.75;5052210;28;19920;-61
2021/08/05 07:18:53;;;;;;;;;;;;;;;18.12;76.50;101003.69;5050267;28;19920;-61
2021/08/05 07:21:20;;;;;;;;;;;;;;;18.15;76.68;101002.56;5031439;28;19970;-61
2021/08/05 07:23:47;;;;;;;;;;;;;;;18.25;75.15;101000.69;5051925;28;19924;-61
2021/08/05 07:26:13;;;;;;;;;;;;;;;18.23;75.53;101003.50;5052109;28;19921;-61
2021/08/05 07:28:40;;;;;;;;;;;;;;;18.32;75.84;101000.94;5052530;28;20997;-61
2021/08/05 07:31:06;;;;;;;;;;;;;;;18.38;74.88;101005.69;5052003;28;20375;-61
2021/08/05 07:33:33;;;;;;;;;;;;;;;18.38;75.23;101006.53;5050445;28;20303;-61
2021/08/05 07:36:01;;;;;;;;;;;;;;;18.56;75.21;101008.41;5048893;28;19967;-61
2021/08/05 07:38:28;;;;;;;;;;;;;;;18.60;74.81;101009.78;5050883;28;19920;-61
2021/08/05 07:40:54;;;;;;;;;;;;;;;18.64;73.80;100995.19;5051866;28;19920;-62
2021/08/05 07:43:21;;;;;;;;;;;;;;;18.78;73.64;100995.66;5048736;28;19931;-61
2021/08/05 07:45:48;;;;;;;;;;;;;;;18.69;74.99;100994.72;5049188;28;20398;-61
2021/08/05 07:48:14;;;;;;;;;;;;;;;18.74;74.92;100990.63;5049299;28;19920;-61
2021/08/05 07:50:41;;;;;;;;;;;;;;;18.95;75.13;100992.22;5051694;28;19970;-62
2021/08/05 07:53:08;;;;;;;;;;;;;;;19.04;75.11;100988.63;5050675;28;20390;-62
2021/08/05 07:55:34;;;;;;;;;;;;;;;19.13;73.43;100983.38;5054310;28;20307;-61
2021/08/05 07:58:05;;;;;;;;;;;;;;;19.28;74.11;100976.53;5051957;28;19925;-62
2021/08/05 08:00:35;;;;;;;;;;;;;;;19.36;73.44;100968.59;5052260;28;19943;-61
2021/08/05 08:03:02;;;;;;;;;;;;;;;19.49;71.98;100962.00;5054340;28;19921;-61
2021/08/05 08:05:30;;;;;;;;;;;;;;;19.59;71.70;100958.25;5054990;28;19921;-62
2021/08/05 08:07:59;;;;;;;;;;;;;;;19.60;70.52;100961.75;5053880;28;19932;-61
2021/08/05 08:10:26;;;;;;;;;;;;;;;19.72;69.96;100960.50;5053680;28;19925;-61
2021/08/05 08:12:53;;;;;;;;;;;;;;;19.80;70.65;100961.56;5051268;28;20318;-61
2021/08/05 08:15:25;;;;;;;;;;;;;;;19.83;69.75;100961.28;5052550;28;19920;-61
2021/08/05 08:17:51;;;;;;;;;;;;;;;19.98;69.36;100959.69;5053278;28;19924;-61
2021/08/05 08:20:18;;;;;;;;;;;;;;;20.02;69.80;100962.88;5053345;28;20398;-61
2021/08/05 08:22:45;;;;;;;;;;;;;;;20.22;68.75;100958.09;5050627;28;20377;-62
2021/08/05 08:25:12;;;;;;;;;;;;;;;20.32;70.13;100952.66;5053535;28;19921;-61
2021/08/05 08:27:40;;;;;;;;;;;;;;;20.46;68.28;100959.22;5053727;28;20241;-61
2021/08/05 08:30:09;;;;;;;;;;;;;;;20.64;67.90;100954.56;5054704;28;19921;-46
2021/08/05 08:32:35;;;;;;;;;;;;;;;20.68;67.57;100957.75;5050818;28;19921;-61
2021/08/05 08:35:03;;;;;;;;;;;;;;;20.72;66.20;100949.31;5052610;28;20384;-61
2021/08/05 08:37:29;;;;;;;;;;;;;;;20.76;66.28;100945.31;5052498;28;19924;-61
2021/08/05 08:39:56;;;;;;;;;;;;;;;20.97;66.89;100959.19;5050976;28;19920;-61
2021/08/05 08:42:23;;;;;;;;;;;;;;;21.28;65.49;100954.00;5052273;28;19921;-61
2021/08/05 08:44:49;;;;;;;;;;;;;;;21.55;66.08;100952.03;5054536;28;19932;-61
2021/08/05 08:47:16;;;;;;;;;;;;;;;21.87;66.32;100942.22;5050567;28;19921;-45
2021/08/05 08:49:43;;;;;;;;;;;;;;;22.01;62.96;100944.22;5051915;28;19974;-45
2021/08/05 08:52:10;;;;;;;;;;;;;;;22.30;62.80;100942.75;5054471;28;19975;-44
2021/08/05 08:54:43;;;;;;;;;;;;;;;22.55;61.80;100937.28;5053028;28;19979;-47
2021/08/05 08:57:13;;;;;;;;;;;;;;;22.91;59.66;100926.81;5053478;28;20453;-49
2021/08/05 08:59:40;;;;;;;;;;;;;;;23.16;60.57;100932.00;5054338;28;19925;-47
2021/08/05 09:02:07;;;;;;;;;;;;;;;23.20;57.66;100936.00;5053314;28;20798;-46
2021/08/05 09:04:34;;;;;;;;;;;;;;;23.28;57.74;100935.09;5051482;28;19924;-46
2021/08/05 09:07:01;;;;;;;;;;;;;;;23.70;56.68;100928.31;5051942;28;19920;-62
2021/08/05 09:09:28;;;;;;;;;;;;;;;23.93;53.69;100935.47;5052541;28;19920;-61
2021/08/05 09:11:54;;;;;;;;;;;;;;;24.04;54.72;100928.81;5053879;28;19921;-62
2021/08/05 09:14:40;;;;;;;;;;;;;;;24.20;53.60;100933.13;5053779;28;19921;-62
2021/08/05 09:17:15;;;;;;;;;;;;;;;24.32;55.26;100925.41;5053477;28;19924;-62
2021/08/05 09:19:42;;;;;;;;;;;;;;;24.44;53.43;100930.09;5052524;28;19921;-62
2021/08/05 09:22:09;;;;;;;;;;;;;;;24.79;52.59;100919.53;5049729;28;20323;-62
2021/08/05 09:24:35;;;;;;;;;;;;;;;25.03;51.98;100917.47;5053173;28;19920;-62
2021/08/05 09:27:03;;;;;;;;;;;;;;;24.96;50.64;100917.44;5053243;28;19925;-61
2021/08/05 09:29:30;;;;;;;;;;;;;;;25.12;49.67;100916.31;5048965;28;20276;-62
2021/08/05 09:31:58;;;;;;;;;;;;;;;25.37;51.67;100915.91;5050621;28;19921;-49
2021/08/05 09:34:31;;;;;;;;;;;;;;;25.30;47.24;100910.47;5053614;28;19921;-49
2021/08/05 09:37:04;;;;;;;;;;;;;;;25.58;47.69;100903.44;5053507;28;19974;-50
2021/08/05 09:39:32;;;;;;;;;;;;;;;25.71;47.71;100903.50;5050173;28;19921;-49
2021/08/05 09:42:03;;;;;;;;;;;;;;;25.80;46.79;100899.59;5051400;28;19920;-61
2021/08/05 09:44:52;;;;;;;;;;;;;;;25.73;46.19;100896.06;5051035;28;19944;-62
2021/08/05 09:47:20;;;;;;;;;;;;;;;25.88;48.01;100905.84;5050516;28;20288;-62
2021/08/05 09:49:47;;;;;;;;;;;;;;;25.97;47.17;100891.19;5053179;28;19928;-62
2021/08/05 09:52:14;;;;;;;;;;;;;;;25.95;45.77;100887.88;5053303;28;19928;-62
2021/08/05 09:54:42;;;;;;;;;;;;;;;26.18;44.67;100894.81;5052426;28;19921;-62
2021/08/05 09:57:12;;;;;;;;;;;;;;;26.47;45.12;100891.78;5053194;28;20344;-62
2021/08/05 09:59:53;;;;;;;;;;;;;;;26.70;43.90;100882.53;5052989;28;19927;-62
2021/08/05 10:02:20;;;;;;;;;;;;;;;27.01;42.74;100891.03;5052480;28;19920;-62
2021/08/05 10:04:48;;;;;;;;;;;;;;;26.94;45.42;100882.94;5049441;28;19924;-62
2021/08/05 10:07:15;;;;;;;;;;;;;;;27.10;43.19;100884.41;5034027;28;19964;-61
2021/08/05 10:09:43;;;;;;;;;;;;;;;27.21;41.19;100881.06;5051630;28;19967;-62
2021/08/05 10:12:18;;;;;;;;;;;;;;;26.93;40.99;100873.22;5051687;28;19924;-62
2021/08/05 10:14:45;;;;;;;;;;;;;;;27.03;40.37;100872.78;5052935;28;19921;-62
2021/08/05 10:17:12;;;;;;;;;;;;;;;26.86;43.33;100877.75;5051811;28;19924;-62
2021/08/05 10:19:40;;;;;;;;;;;;;;;27.10;43.88;100868.22;5048964;28;19967;-61
2021/08/05 10:22:08;;;;;;;;;;;;;;;27.03;43.30;100862.00;5051087;28;20150;-62
2021/08/05 10:24:35;;;;;;;;;;;;;;;26.79;43.15;100867.81;5051357;28;20326;-61
2021/08/05 10:27:01;;;;;;;;;;;;;;;26.98;43.43;100859.91;5052706;28;19959;-61
2021/08/05 10:29:28;;;;;;;;;;;;;;;27.31;42.75;100856.38;5052827;28;20326;-62
2021/08/05 10:31:55;;;;;;;;;;;;;;;27.34;43.33;100858.63;5051629;28;20298;-62
2021/08/05 10:34:21;;;;;;;;;;;;;;;27.33;42.37;100849.69;5052699;28;19940;-62
2021/08/05 10:36:49;;;;;;;;;;;;;;;27.34;41.42;100858.63;5051080;28;19928;-61
2021/08/05 10:39:16;;;;;;;;;;;;;;;27.42;40.01;100853.03;5048766;28;19979;-62
2021/08/05 10:41:43;;;;;;;;;;;;;;;27.64;39.45;100852.78;5049784;28;19925;-46
2021/08/05 10:44:09;;;;;;;;;;;;;;;27.95;40.50;100846.63;5050590;28;19924;-45
2021/08/05 10:46:36;;;;;;;;;;;;;;;27.81;38.94;100848.56;5052379;28;19921;-62
2021/08/05 10:49:03;;;;;;;;;;;;;;;27.52;40.33;100847.19;5051037;28;19921;-62
2021/08/05 10:51:33;;;;;;;;;;;;;;;27.08;41.46;100843.31;5050180;28;19921;-61
2021/08/05 10:54:01;;;;;;;;;;;;;;;27.23;41.90;100840.38;5048205;28;19920;-62
2021/08/05 10:56:30;;;;;;;;;;;;;;;27.74;40.55;100847.72;5052105;28;19987;-62
2021/08/05 10:59:03;;;;;;;;;;;;;;;27.99;41.29;100838.88;5051443;28;20379;-47
2021/08/05 11:01:45;;;;;;;;;;;;;;;28.10;39.85;100830.16;5052627;28;19927;-52
2021/08/05 11:04:47;;;;;;;;;;;;;;;28.28;39.44;100831.28;5050932;28;19921;-49
2021/08/05 11:07:21;;;;;;;;;;;;;;;27.92;39.65;100827.28;5048307;28;19921;-52
2021/08/05 11:09:48;;;;;;;;;;;;;;;28.07;40.43;100827.84;5051886;28;19971;-62
2021/08/05 11:12:33;;;;;;;;;;;;;;;27.89;38.90;100827.72;5050580;28;19925;-62
2021/08/05 11:15:00;;;;;;;;;;;;;;;28.38;40.01;100822.69;5051330;28;19920;-62
2021/08/05 11:17:27;;;;;;;;;;;;;;;28.74;38.53;100819.31;5050665;28;19931;-62
2021/08/05 11:20:13;;;;;;;;;;;;;;;28.73;36.84;100814.13;5049392;28;20346;-62
2021/08/05 11:22:40;;;;;;;;;;;;;;;28.68;36.51;100820.19;5050835;28;19921;-51
2021/08/05 11:25:07;;;;;;;;;;;;;;;28.50;36.96;100820.94;5051097;28;20071;-49
2021/08/05 11:27:36;;;;;;;;;;;;;;;28.94;36.44;100807.47;5052184;28;19921;-51
2021/08/05 11:30:23;;;;;;;;;;;;;;;29.23;37.68;100799.69;5051611;28;19975;-51
2021/08/05 11:32:49;;;;;;;;;;;;;;;29.02;34.98;100801.78;5054327;28;19920;-62
2021/08/05 11:35:18;;;;;;;;;;;;;;;29.36;38.52;100798.75;5056152;28;19960;-62
2021/08/05 11:38:06;;;;;;;;;;;;;;;29.59;38.13;100788.03;5055889;28;19921;-62
2021/08/05 11:40:42;;;;;;;;;;;;;;;29.10;38.73;100792.56;5053473;28;19920;-51
2021/08/05 11:43:16;;;;;;;;;;;;;;;29.58;40.39;100785.56;5053995;28;19921;-50
2021/08/05 11:46:03;;;;;;;;;;;;;;;29.78;37.54;100783.41;5054588;28;19951;-62
2021/08/05 11:48:36;;;;;;;;;;;;;;;29.94;37.51;100781.16;5055432;28;19920;-62
2021/08/05 11:51:03;;;;;;;;;;;;;;;29.79;37.36;100776.94;5054966;28;19925;-62
2021/08/05 11:53:29;;;;;;;;;;;;;;;29.37;37.26;100774.16;5051648;28;19924;-62
2021/08/05 11:55:56;;;;;;;;;;;;;;;29.30;38.25;100768.81;5053045;28;20438;-62
2021/08/05 11:58:23;;;;;;;;;;;;;;;29.02;38.89;100765.78;5055645;28;20319;-62
2021/08/05 12:00:49;;;;;;;;;;;;;;;28.79;38.01;100761.84;5054204;28;20390;-48
2021/08/05 12:03:16;;;;;;;;;;;;;;;29.02;38.33;100757.66;5051875;28;19924;-50
2021/08/05 12:05:45;;;;;;;;;;;;;;;29.05;38.20;100760.72;5053175;28;19966;-51
2021/08/05 12:08:11;;;;;;;;;;;;;;;28.85;37.80;100752.84;5055290;28;19924;-51
2021/08/05 12:10:39;;;;;;;;;;;;;;;29.14;37.73;100751.25;5052089;28;19947;-51
2021/08/05 12:13:16;;;;;;;;;;;;;;;29.24;37.76;100748.00;5049360;28;19924;-48
2021/08/05 12:15:45;;;;;;;;;;;;;;;29.09;37.07;100747.59;5054921;28;20523;-62
2021/08/05 12:18:15;;;;;;;;;;;;;;;28.58;38.25;100746.78;5054148;28;19928;-62
2021/08/05 12:20:52;;;;;;;;;;;;;;;28.53;38.56;100741.25;5054360;28;20403;-62
2021/08/05 12:28:29;;;;;;;;;;;;;;;27.62;40.00;100742.25;5054383;28;19920;-62
2021/08/05 12:31:00;;;;;;;;;;;;;;;27.55;40.00;100741.44;5052232;28;19928;-62
2021/08/05 12:33:31;;;;;;;;;;;;;;;27.49;40.61;100737.72;5053032;28;20368;-52
2021/08/05 12:36:14;;;;;;;;;;;;;;;27.27;42.32;100741.75;5053762;28;20375;-50
2021/08/05 12:38:49;;;;;;;;;;;;;;;27.21;42.68;100737.19;5053597;28;20371;-49
2021/08/05 12:41:19;;;;;;;;;;;;;;;26.81;43.77;100732.75;5054131;28;19921;-52
2021/08/05 12:43:48;;;;;;;;;;;;;;;26.66;42.79;100732.94;5050808;28;20280;-50
2021/08/05 12:46:15;;;;;;;;;;;;;;;26.28;41.84;100731.69;5052571;28;19921;-49